Time;durP1;ratioP1;P1;durP2;ratioP2;P2;SDS_P1;SDS_P2;PMS_P1;PMS_P2;Temp;Humidity;BMP_temperature;BMP_pressure;BME280_temperature;BME280_humidity;BME280_pressure;Samples;Min_cycle;Max_cycle;Signal;HPM_P1;HPM_P2
2022/04/30 00:01:11;;;;;;;6.47;4.20;;;;;;;4.12;68.45;100507.81;4863797;29;20113;-81
2022/04/30 00:03:38;;;;;;;7.43;3.88;;;;;;;4.10;68.14;100506.88;4875083;29;20117;-82
2022/04/30 00:06:07;;;;;;;6.72;4.28;;;;;;;4.08;68.65;100505.91;4872475;29;20171;-82
2022/04/30 00:08:35;;;;;;;5.07;3.67;;;;;;;3.94;68.47;100484.69;4863661;29;20053;-79
2022/04/30 00:11:03;;;;;;;3.88;3.47;;;;;;;4.02;69.00;100504.00;4863474;29;20567;-82
2022/04/30 00:13:30;;;;;;;7.90;4.32;;;;;;;3.96;69.19;100510.59;4864016;29;20060;-84
2022/04/30 00:15:59;;;;;;;6.93;4.30;;;;;;;3.82;69.45;100491.97;4863693;29;20076;-86
2022/04/30 00:18:28;;;;;;;4.78;3.72;;;;;;;3.82;69.69;100505.75;4864913;29;20115;-85
2022/04/30 00:20:58;;;;;;;5.50;3.70;;;;;;;3.67;69.81;100498.25;4864132;29;20171;-87
2022/04/30 00:23:26;;;;;;;5.47;4.03;;;;;;;3.48;69.80;100452.72;4863755;29;20058;-85
2022/04/30 00:25:56;;;;;;;7.25;4.40;;;;;;;3.31;69.94;100437.31;4863336;29;20053;-84
2022/04/30 00:28:25;;;;;;;9.95;4.50;;;;;;;3.71;69.75;100500.97;4863814;29;20555;-82
2022/04/30 00:30:53;;;;;;;6.63;4.35;;;;;;;3.36;69.86;100444.44;4863254;29;20530;-83
2022/04/30 00:33:20;;;;;;;6.38;4.18;;;;;;;3.69;69.98;100513.81;4868586;29;20088;-85
2022/04/30 00:35:48;;;;;;;8.05;4.63;;;;;;;3.66;69.97;100493.03;4870491;29;20081;-82
2022/04/30 00:38:15;;;;;;;5.85;4.05;;;;;;;3.45;70.23;100474.94;4869356;29;20057;-82
2022/04/30 00:40:43;;;;;;;7.03;4.90;;;;;;;3.69;70.34;100508.66;4865113;29;20083;-83
2022/04/30 00:43:10;;;;;;;7.43;4.30;;;;;;;3.53;70.07;100476.16;4861675;29;20072;-80
2022/04/30 00:45:43;;;;;;;7.63;4.60;;;;;;;3.66;70.32;100498.22;4862983;29;20061;-85
2022/04/30 00:48:29;;;;;;;8.05;4.50;;;;;;;3.57;70.19;100497.81;4863136;29;20173;-83
2022/04/30 00:50:57;;;;;;;6.68;4.32;;;;;;;3.62;70.56;100496.31;4863008;29;20057;-83
2022/04/30 00:53:24;;;;;;;6.10;4.18;;;;;;;3.74;70.18;100525.22;4863483;29;20086;-83
2022/04/30 00:55:52;;;;;;;7.15;4.15;;;;;;;3.80;69.97;100507.38;4863273;29;20085;-83
2022/04/30 00:58:21;;;;;;;7.07;4.60;;;;;;;3.75;69.64;100482.19;4864315;29;20117;-84
2022/04/30 01:01:04;;;;;;;5.50;4.20;;;;;;;4.03;69.28;100507.44;4865317;29;20083;-85
2022/04/30 01:04:07;;;;;;;5.72;3.80;;;;;;;4.00;69.62;100526.31;4860448;29;20057;-80
2022/04/30 01:07:02;;;;;;;7.18;4.10;;;;;;;3.91;69.17;100510.41;4862420;29;20104;-81
2022/04/30 01:09:34;;;;;;;8.02;4.72;;;;;;;3.59;69.97;100486.75;4862350;29;20797;-83
2022/04/30 01:12:06;;;;;;;6.32;4.72;;;;;;;3.67;70.62;100510.28;4864070;29;20125;-88
2022/04/30 01:14:34;;;;;;;9.07;4.90;;;;;;;3.60;70.69;100497.97;4879977;29;20113;-82
2022/04/30 01:17:05;;;;;;;7.60;4.60;;;;;;;3.54;70.57;100510.59;4868211;29;20067;-81
2022/04/30 01:19:37;;;;;;;6.82;4.25;;;;;;;3.58;70.51;100520.25;4862140;29;20144;-83
2022/04/30 01:22:12;;;;;;;6.90;4.05;;;;;;;3.62;70.77;100517.00;4861625;29;20492;-79
2022/04/30 01:24:40;;;;;;;6.65;3.70;;;;;;;3.64;70.18;100513.63;4862167;29;20088;-80
2022/04/30 01:27:08;;;;;;;6.05;3.55;;;;;;;3.19;69.74;100406.72;4861741;29;20061;-83
2022/04/30 01:29:38;;;;;;;4.75;3.50;;;;;;;3.76;69.39;100497.75;4861863;29;20089;-83
2022/04/30 01:37:36;;;;;;;5.93;3.78;;;;;;;3.65;69.77;100511.94;4862327;29;20054;-82
2022/04/30 01:40:11;;;;;;;7.18;4.03;;;;;;;3.45;69.82;100487.84;4860642;29;20065;-85
2022/04/30 01:42:45;;;;;;;5.97;4.22;;;;;;;3.40;69.71;100467.00;4861925;29;20144;-82
2022/04/30 01:45:14;;;;;;;5.50;3.88;;;;;;;3.52;69.64;100481.25;4860744;29;20061;-83
2022/04/30 01:47:44;;;;;;;5.40;4.00;;;;;;;3.78;69.21;100534.88;4860254;29;20061;-82
2022/04/30 01:50:13;;;;;;;7.70;4.03;;;;;;;3.82;69.19;100535.88;4861605;29;20508;-82
2022/04/30 01:52:40;;;;;;;5.53;4.10;;;;;;;3.78;69.19;100523.66;4861444;29;20053;-82
2022/04/30 01:55:07;;;;;;;6.05;4.00;;;;;;;3.80;68.64;100512.56;4860811;29;20057;-84
2022/04/30 01:57:39;;;;;;;6.60;4.20;;;;;;;3.85;68.72;100510.16;4859716;29;20473;-82
2022/04/30 02:00:14;;;;;;;7.25;4.60;;;;;;;3.94;68.46;100515.72;4860129;29;20057;-83
2022/04/30 02:02:45;;;;;;;6.85;4.38;;;;;;;3.86;67.83;100489.56;4859547;29;20149;-83
2022/04/30 02:05:16;;;;;;;7.45;4.50;;;;;;;4.02;68.40;100523.78;4842239;29;20058;-81
2022/04/30 02:07:53;;;;;;;7.32;4.35;;;;;;;3.76;68.14;100495.16;4851395;29;20065;-86
2022/04/30 02:10:22;;;;;;;6.97;4.82;;;;;;;4.05;68.17;100532.53;4861104;29;20061;-84
2022/04/30 02:12:53;;;;;;;6.45;4.72;;;;;;;4.09;67.85;100537.03;4843578;29;20053;-82
2022/04/30 02:15:23;;;;;;;9.18;6.32;;;;;;;4.03;67.55;100538.47;4859918;29;20061;-81
